Denver, Missouri
Current Conditions -  °F | °C
As of 5:53 AM on Monday 20 Oct 2014 (Local Time) from KLWD Reporting Station
Clear Clear  
Wind Chill: 45°   Ceiling: Unl
Heat Index: 48°   Visibility: 10mi
Dew Point: 45°   Wind: 7mph
Humidity: 89%   Direction: 330°NNW
Pressure: 29.98"   Gusts: NA
Location:  40.4°N, 94.32°W
Report Text: KLWD 201053Z AUTO 33006KT 10SM CLR 09/07 A2998 RMK AO2 SLP151 T00890072
Loading
Personal Weather Stations






























Interactive Weather Map
Tropical Storm Tracking
New forecast layout! Learn more

10-Day Weather Forecast

Advertisements
Track Severe Weather on mobile